createdAt,value
2019-02-27T00:02:29.415Z,7.25
2019-02-27T00:04:58.499Z,7.23
2019-02-27T00:07:27.547Z,7.20
2019-02-27T00:09:56.808Z,7.18
2019-02-27T00:12:25.909Z,7.14
2019-02-27T00:14:54.987Z,7.09
2019-02-27T00:17:23.997Z,7.03
2019-02-27T00:19:53.042Z,7.02
2019-02-27T00:22:22.109Z,7.06
2019-02-27T00:24:51.200Z,6.99
2019-02-27T00:27:21.145Z,6.99
2019-02-27T00:29:50.143Z,6.94
2019-02-27T00:32:19.229Z,6.95
2019-02-27T00:34:48.540Z,6.91
2019-02-27T00:37:19.068Z,6.89
2019-02-27T00:39:48.367Z,6.87
2019-02-27T00:42:20.654Z,6.88
2019-02-27T00:44:48.509Z,6.89
2019-02-27T00:47:20.178Z,6.91
2019-02-27T00:49:48.611Z,6.82
2019-02-27T00:52:18.341Z,6.78
2019-02-27T00:54:47.833Z,6.74
2019-02-27T00:57:20.450Z,6.71
2019-02-27T00:59:47.598Z,6.64
2019-02-27T01:02:19.937Z,6.52
2019-02-27T01:04:47.396Z,6.46
2019-02-27T01:07:20.207Z,6.43
2019-02-27T01:09:48.138Z,6.42
2019-02-27T01:12:17.753Z,6.42
2019-02-27T01:14:47.409Z,6.27
2019-02-27T01:17:16.419Z,6.23
2019-02-27T01:19:45.486Z,6.14
2019-02-27T01:22:14.760Z,6.04
2019-02-27T01:24:43.787Z,6.07
2019-02-27T01:27:12.821Z,6.08
2019-02-27T01:29:41.882Z,6.01
2019-02-27T01:32:11.254Z,6.03
2019-02-27T01:34:44.171Z,5.91
2019-02-27T01:37:11.383Z,5.84
2019-02-27T01:39:41.838Z,5.85
2019-02-27T01:42:11.856Z,5.91
2019-02-27T01:45:01.887Z,5.95
2019-02-27T01:47:30.951Z,5.97
2019-02-27T01:50:00.334Z,5.94
2019-02-27T01:52:33.957Z,5.98
2019-02-27T01:55:00.629Z,5.97
2019-02-27T01:57:29.678Z,5.98
2019-02-27T01:59:59.081Z,5.96
2019-02-27T02:02:28.158Z,5.93
2019-02-27T02:04:57.473Z,5.83
2019-02-27T02:07:26.477Z,5.78
2019-02-27T02:09:55.879Z,5.81
2019-02-27T02:12:28.231Z,5.79
2019-02-27T02:15:34.921Z,5.90
2019-02-27T02:18:48.831Z,5.98
2019-02-27T02:21:51.823Z,6.12
2019-02-27T02:25:08.363Z,6.05
2019-02-27T02:28:14.767Z,6.00
2019-02-27T02:31:16.253Z,5.91
2019-02-27T02:34:21.937Z,5.85
2019-02-27T02:37:07.296Z,5.74
2019-02-27T02:40:05.679Z,5.66
2019-02-27T02:43:04.840Z,5.60
2019-02-27T02:45:46.083Z,5.54
2019-02-27T02:48:42.728Z,5.50
2019-02-27T02:51:56.149Z,5.46
2019-02-27T02:55:11.872Z,5.30
2019-02-27T02:57:54.466Z,5.19
2019-02-27T03:00:56.637Z,5.09
2019-02-27T03:03:45.971Z,5.02
2019-02-27T03:06:34.736Z,5.01
2019-02-27T03:09:30.039Z,4.99
2019-02-27T03:12:40.925Z,5.04
2019-02-27T03:15:34.082Z,5.04
2019-02-27T03:18:38.283Z,5.08
2019-02-27T03:21:33.528Z,5.12
2019-02-27T03:24:28.297Z,5.08
2019-02-27T03:27:30.552Z,5.04
2019-02-27T03:30:40.775Z,5.02
2019-02-27T03:33:48.078Z,5.03
2019-02-27T03:37:14.312Z,4.97
2019-02-27T03:40:33.463Z,4.92
2019-02-27T03:43:26.418Z,4.89
2019-02-27T03:46:33.213Z,4.85
2019-02-27T03:49:43.259Z,4.84
2019-02-27T03:52:52.435Z,4.82
2019-02-27T03:56:10.686Z,4.83
2019-02-27T03:59:42.452Z,4.86
2019-02-27T04:02:53.998Z,4.88
2019-02-27T04:06:21.361Z,4.81
2019-02-27T04:08:58.015Z,4.74
2019-02-27T04:11:27.574Z,4.72
2019-02-27T04:14:03.235Z,4.66
2019-02-27T04:16:32.635Z,4.77
2019-02-27T04:19:04.598Z,4.94
2019-02-27T04:21:33.041Z,5.09
2019-02-27T04:24:02.102Z,5.21
2019-02-27T04:26:31.132Z,5.43
2019-02-27T04:29:03.984Z,5.77
2019-02-27T04:31:31.529Z,6.10
2019-02-27T04:34:01.259Z,6.43
2019-02-27T04:36:30.532Z,6.58
2019-02-27T04:39:02.419Z,6.63
2019-02-27T04:41:31.551Z,6.60
2019-02-27T04:44:05.289Z,6.57
2019-02-27T04:46:31.777Z,6.68
2019-02-27T04:49:03.999Z,6.60
2019-02-27T04:51:31.858Z,6.48
2019-02-27T04:54:01.291Z,6.42
2019-02-27T04:56:30.293Z,6.32
2019-02-27T04:58:59.318Z,6.26
2019-02-27T05:01:28.418Z,6.25
2019-02-27T05:04:01.089Z,6.21
2019-02-27T05:06:28.595Z,6.10
2019-02-27T05:08:59.699Z,5.92
2019-02-27T05:11:28.469Z,5.77
2019-02-27T05:13:57.512Z,5.69
2019-02-27T05:16:26.540Z,5.63
2019-02-27T05:18:55.942Z,5.49
2019-02-27T05:21:25.353Z,5.42
2019-02-27T05:23:54.602Z,5.34
2019-02-27T05:26:27.065Z,5.28
2019-02-27T05:28:55.030Z,5.19
2019-02-27T05:31:24.124Z,5.13
2019-02-27T05:33:53.217Z,5.07
2019-02-27T05:36:22.244Z,5.08
2019-02-27T05:38:51.938Z,5.06
2019-02-27T05:41:21.005Z,5.01
2019-02-27T05:43:50.028Z,4.95
2019-02-27T05:46:19.540Z,4.89
2019-02-27T05:48:50.960Z,4.77
2019-02-27T05:51:19.486Z,4.72
2019-02-27T05:53:48.539Z,4.68
2019-02-27T05:56:17.573Z,4.53
2019-02-27T05:58:47.098Z,4.47
2019-02-27T06:01:16.100Z,4.47
2019-02-27T06:03:45.162Z,4.45
2019-02-27T06:06:14.414Z,4.48
2019-02-27T06:08:43.825Z,4.55
2019-02-27T06:11:12.866Z,4.54
2019-02-27T06:13:41.874Z,4.56
2019-02-27T06:16:11.040Z,4.54
2019-02-27T06:18:40.802Z,4.56
2019-02-27T06:21:09.972Z,4.47
2019-02-27T06:23:39.177Z,4.44
2019-02-27T06:26:08.191Z,4.38
2019-02-27T06:28:37.694Z,4.39
2019-02-27T06:31:06.701Z,4.32
2019-02-27T06:33:35.724Z,4.30
2019-02-27T06:36:05.307Z,4.30
2019-02-27T06:38:35.548Z,4.30
2019-02-27T06:41:04.594Z,4.29
2019-02-27T06:43:33.620Z,4.36
2019-02-27T06:46:02.677Z,4.37
2019-02-27T06:48:32.381Z,4.39
2019-02-27T06:51:01.650Z,4.33
2019-02-27T06:53:30.710Z,4.31
2019-02-27T06:56:02.759Z,4.41
2019-02-27T06:58:30.522Z,4.45
2019-02-27T07:00:59.553Z,4.53
2019-02-27T07:03:29.527Z,4.62
2019-02-27T07:05:59.356Z,4.80
2019-02-27T07:08:28.746Z,4.91
2019-02-27T07:11:09.915Z,4.95
2019-02-27T07:13:29.912Z,5.08
2019-02-27T07:15:59.083Z,5.29
2019-02-27T07:18:28.186Z,5.33
2019-02-27T07:20:58.478Z,5.57
2019-02-27T07:23:28.580Z,5.67
2019-02-27T07:25:57.656Z,5.86
2019-02-27T07:28:26.693Z,6.26
2019-02-27T07:30:56.196Z,6.55
2019-02-27T07:33:25.254Z,6.62
2019-02-27T07:35:54.602Z,6.66
2019-02-27T07:38:25.515Z,6.76
2019-02-27T07:40:54.814Z,6.80
2019-02-27T07:43:23.854Z,6.82
2019-02-27T07:45:54.373Z,6.83
2019-02-27T07:48:23.577Z,6.89
2019-02-27T07:50:52.982Z,6.90
2019-02-27T07:53:22.198Z,7.03
2019-02-27T07:55:51.216Z,7.13
2019-02-27T07:58:20.225Z,7.17
2019-02-27T08:00:49.950Z,7.29
2019-02-27T08:03:19.578Z,7.34
2019-02-27T08:05:48.988Z,7.47
2019-02-27T08:08:18.036Z,7.55
2019-02-27T08:10:47.170Z,7.71
2019-02-27T08:13:16.558Z,7.70
2019-02-27T08:15:45.580Z,7.73
2019-02-27T08:18:14.689Z,7.83
2019-02-27T08:20:44.412Z,8.09
2019-02-27T08:23:15.510Z,8.27
2019-02-27T08:25:45.127Z,8.36
2019-02-27T08:28:14.592Z,8.51
2019-02-27T08:30:43.666Z,8.62
2019-02-27T08:33:15.208Z,8.62
2019-02-27T08:35:44.157Z,8.68
2019-02-27T08:38:13.588Z,8.74
2019-02-27T08:40:42.631Z,8.90
2019-02-27T08:43:12.227Z,8.85
2019-02-27T08:45:41.717Z,9.05
2019-02-27T08:48:11.180Z,9.17
2019-02-27T08:50:40.586Z,9.33
2019-02-27T08:53:09.716Z,9.57
2019-02-27T08:55:39.826Z,9.82
2019-02-27T08:58:09.088Z,11.33
2019-02-27T09:00:39.452Z,13.38
2019-02-27T09:03:08.486Z,15.01
2019-02-27T09:05:38.080Z,16.22
2019-02-27T09:08:09.877Z,17.05
2019-02-27T09:10:38.094Z,18.63
2019-02-27T09:13:07.792Z,19.06
2019-02-27T09:15:36.841Z,19.41
2019-02-27T09:18:05.877Z,18.88
2019-02-27T09:20:39.950Z,18.84
2019-02-27T09:23:09.336Z,19.16
2019-02-27T09:25:38.358Z,19.46
2019-02-27T09:28:09.419Z,19.57
2019-02-27T09:30:38.536Z,18.78
2019-02-27T09:33:07.570Z,18.67
2019-02-27T09:35:38.766Z,19.41
2019-02-27T09:38:08.697Z,18.44
2019-02-27T09:40:40.311Z,19.37
2019-02-27T09:43:09.444Z,19.68
2019-02-27T09:45:38.764Z,22.54
2019-02-27T09:48:08.716Z,23.48
2019-02-27T09:50:47.728Z,22.90
2019-02-27T09:53:13.568Z,23.82
2019-02-27T09:55:43.156Z,22.40
2019-02-27T09:58:12.576Z,21.95
2019-02-27T10:00:45.542Z,22.33
2019-02-27T10:03:19.762Z,21.69
2019-02-27T10:05:45.900Z,21.69
2019-02-27T10:08:15.002Z,19.40
2019-02-27T10:10:45.810Z,21.07
2019-02-27T10:13:15.098Z,20.72
2019-02-27T10:15:44.126Z,22.64
2019-02-27T10:18:13.182Z,22.55
2019-02-27T10:20:42.198Z,23.55
2019-02-27T10:23:11.242Z,24.57
2019-02-27T10:25:43.194Z,23.82
2019-02-27T10:28:11.114Z,24.56
2019-02-27T10:30:40.123Z,22.73
2019-02-27T10:33:11.142Z,24.87
2019-02-27T10:35:39.937Z,24.11
2019-02-27T10:38:08.970Z,24.81
2019-02-27T10:40:37.991Z,24.13
2019-02-27T10:43:07.022Z,24.39
2019-02-27T10:45:36.314Z,24.73
2019-02-27T10:48:05.608Z,25.16
2019-02-27T10:50:36.096Z,24.06
2019-02-27T10:53:05.513Z,23.28
2019-02-27T10:55:35.155Z,23.97
2019-02-27T10:58:04.191Z,24.96
2019-02-27T11:00:33.517Z,23.91
2019-02-27T11:03:02.841Z,23.93
2019-02-27T11:05:32.747Z,23.58
2019-02-27T11:08:01.339Z,25.09
2019-02-27T11:10:30.629Z,25.30
2019-02-27T11:12:59.709Z,24.19
2019-02-27T11:15:28.763Z,26.31
2019-02-27T11:17:57.775Z,26.91
2019-02-27T11:20:27.049Z,25.62
2019-02-27T11:22:56.415Z,26.09
2019-02-27T11:25:26.405Z,25.11
2019-02-27T11:27:56.738Z,24.04
2019-02-27T11:30:35.931Z,23.17
2019-02-27T11:33:02.362Z,22.50
2019-02-27T11:35:31.365Z,21.95
2019-02-27T11:38:00.406Z,22.92
2019-02-27T11:40:29.717Z,23.84
2019-02-27T11:43:00.953Z,23.62
2019-02-27T11:45:29.864Z,23.38
2019-02-27T11:47:59.011Z,23.30
2019-02-27T11:50:28.108Z,24.89
2019-02-27T11:53:01.888Z,26.47
2019-02-27T11:55:28.849Z,24.65
2019-02-27T11:57:58.467Z,25.49
2019-02-27T12:00:29.266Z,27.14
2019-02-27T12:02:58.669Z,26.02
2019-02-27T12:05:32.568Z,26.36
2019-02-27T12:07:58.556Z,26.06
2019-02-27T12:10:28.285Z,27.53
2019-02-27T12:13:00.799Z,28.15
2019-02-27T12:15:29.037Z,28.21
2019-02-27T12:18:00.488Z,28.22
2019-02-27T12:20:29.173Z,29.55
2019-02-27T12:22:58.346Z,28.17
2019-02-27T12:25:29.972Z,29.20
2019-02-27T12:27:58.629Z,28.30
2019-02-27T12:30:27.901Z,28.64
2019-02-27T12:32:57.327Z,29.10
2019-02-27T12:35:28.004Z,27.88
2019-02-27T12:37:57.351Z,27.04
2019-02-27T12:40:26.500Z,27.42
2019-02-27T12:42:55.514Z,27.20
2019-02-27T12:45:26.646Z,27.76
2019-02-27T12:47:55.857Z,28.40
2019-02-27T12:50:26.894Z,26.12
2019-02-27T12:52:56.107Z,27.13
2019-02-27T12:55:25.307Z,27.58
2019-02-27T12:57:54.346Z,26.27
2019-02-27T13:00:25.967Z,27.15
2019-02-27T13:02:56.277Z,26.08
2019-02-27T13:05:27.347Z,26.81
2019-02-27T13:07:56.458Z,27.52
2019-02-27T13:10:25.774Z,28.36
2019-02-27T13:12:55.136Z,27.65
2019-02-27T13:15:24.382Z,28.60
2019-02-27T13:17:57.671Z,26.97
2019-02-27T13:20:25.764Z,26.18
2019-02-27T13:22:54.823Z,27.10
2019-02-27T13:25:24.879Z,26.32
2019-02-27T13:27:54.337Z,26.40
2019-02-27T13:30:23.362Z,27.94
2019-02-27T13:32:52.406Z,27.16
2019-02-27T13:35:22.953Z,26.79
2019-02-27T13:37:52.740Z,27.00
2019-02-27T13:40:21.926Z,26.33
2019-02-27T13:42:53.500Z,26.87
2019-02-27T13:45:23.291Z,26.30
2019-02-27T13:47:52.368Z,25.33
2019-02-27T13:50:23.444Z,26.25
2019-02-27T13:52:52.791Z,25.80
2019-02-27T13:55:22.002Z,26.34
2019-02-27T13:57:51.385Z,25.25
2019-02-27T14:00:26.167Z,24.46
2019-02-27T14:02:55.337Z,24.56
2019-02-27T14:05:24.666Z,24.36
2019-02-27T14:07:57.170Z,24.48
2019-02-27T14:10:25.905Z,25.10
2019-02-27T14:12:55.223Z,24.97
2019-02-27T14:15:27.307Z,25.38
2019-02-27T14:17:55.412Z,25.31
2019-02-27T14:20:27.075Z,25.11
2019-02-27T14:22:55.531Z,23.66
2019-02-27T14:25:28.514Z,24.30
2019-02-27T14:27:56.622Z,24.20
2019-02-27T14:30:28.139Z,23.43
2019-02-27T14:32:57.495Z,23.45
2019-02-27T14:35:26.575Z,24.27
2019-02-27T14:37:55.743Z,24.04
2019-02-27T14:40:25.108Z,24.47
2019-02-27T14:42:55.069Z,23.91
2019-02-27T14:45:24.312Z,24.56
2019-02-27T14:47:53.651Z,24.40
2019-02-27T14:50:23.470Z,23.20
2019-02-27T14:52:52.526Z,23.29
2019-02-27T14:55:22.291Z,23.21
2019-02-27T14:57:52.001Z,23.12
2019-02-27T15:00:24.483Z,22.72
2019-02-27T15:02:55.613Z,22.76
2019-02-27T15:05:25.019Z,22.41
2019-02-27T15:07:54.890Z,22.31
2019-02-27T15:10:24.071Z,22.56
2019-02-27T15:12:55.144Z,21.67
2019-02-27T15:15:26.137Z,21.50
2019-02-27T15:17:55.650Z,21.06
2019-02-27T15:20:25.882Z,21.39
2019-02-27T15:22:55.027Z,21.34
2019-02-27T15:25:24.728Z,21.64
2019-02-27T15:27:58.269Z,21.57
2019-02-27T15:30:25.931Z,21.23
2019-02-27T15:32:55.587Z,21.19
2019-02-27T15:35:24.728Z,21.16
2019-02-27T15:37:54.255Z,20.68
2019-02-27T15:40:28.371Z,20.84
2019-02-27T15:42:55.156Z,20.82
2019-02-27T15:45:24.907Z,20.80
2019-02-27T15:47:54.158Z,20.00
2019-02-27T15:50:24.387Z,19.36
2019-02-27T15:52:53.670Z,19.20
2019-02-27T15:55:24.200Z,19.19
2019-02-27T15:57:54.629Z,19.26
2019-02-27T16:00:24.267Z,19.06
2019-02-27T16:02:54.640Z,18.97
2019-02-27T16:05:29.866Z,18.94
2019-02-27T16:07:56.209Z,19.02
2019-02-27T16:10:27.192Z,18.77
2019-02-27T16:12:59.676Z,18.68
2019-02-27T16:15:28.675Z,18.50
2019-02-27T16:17:58.619Z,18.52
2019-02-27T16:20:28.733Z,18.29
2019-02-27T16:22:58.597Z,18.27
2019-02-27T16:25:28.255Z,18.19
2019-02-27T16:27:58.196Z,18.02
2019-02-27T16:30:32.440Z,17.98
2019-02-27T16:33:01.624Z,17.97
2019-02-27T16:35:31.608Z,17.71
2019-02-27T16:38:01.685Z,17.76
2019-02-27T16:40:30.922Z,17.79
2019-02-27T16:43:00.506Z,17.84
2019-02-27T16:45:33.846Z,17.80
2019-02-27T16:48:02.117Z,17.93
2019-02-27T16:50:31.355Z,17.76
2019-02-27T16:53:01.013Z,17.75
2019-02-27T16:55:35.601Z,17.97
2019-02-27T16:58:02.234Z,17.73
2019-02-27T17:00:32.648Z,17.71
2019-02-27T17:03:02.381Z,17.67
2019-02-27T17:05:32.923Z,17.52
2019-02-27T17:08:03.037Z,17.23
2019-02-27T17:10:32.905Z,16.99
2019-02-27T17:13:03.179Z,17.05
2019-02-27T17:15:35.848Z,16.40
2019-02-27T17:18:09.542Z,16.35
2019-02-27T17:20:39.345Z,16.29
2019-02-27T17:23:10.932Z,16.23
2019-02-27T17:25:40.186Z,16.20
2019-02-27T17:28:09.419Z,16.26
2019-02-27T17:30:39.332Z,16.19
2019-02-27T17:33:08.758Z,16.19
2019-02-27T17:35:38.658Z,16.19
2019-02-27T17:38:10.759Z,16.22
2019-02-27T17:40:39.943Z,15.96
2019-02-27T17:43:09.964Z,15.81
2019-02-27T17:45:39.956Z,15.55
2019-02-27T17:48:12.255Z,15.35
2019-02-27T17:50:40.504Z,15.27
2019-02-27T17:53:10.487Z,15.12
2019-02-27T17:55:41.694Z,14.91
2019-02-27T17:58:11.512Z,14.73
2019-02-27T18:00:42.355Z,14.55
2019-02-27T18:03:11.383Z,14.55
2019-02-27T18:05:40.383Z,14.53
2019-02-27T18:08:09.469Z,14.41
2019-02-27T18:10:38.890Z,14.41
2019-02-27T18:13:08.388Z,14.36
2019-02-27T18:15:37.423Z,14.22
2019-02-27T18:18:09.113Z,14.15
2019-02-27T18:20:37.597Z,14.08
2019-02-27T18:23:06.885Z,14.01
2019-02-27T18:25:40.875Z,13.95
2019-02-27T18:28:06.805Z,13.75
2019-02-27T18:30:35.913Z,13.64
2019-02-27T18:33:05.345Z,13.57
2019-02-27T18:35:34.746Z,13.49
2019-02-27T18:38:04.196Z,13.41
2019-02-27T18:40:33.275Z,13.31
2019-02-27T18:43:02.647Z,13.10
2019-02-27T18:45:32.174Z,13.09
2019-02-27T18:48:01.613Z,12.93
2019-02-27T18:50:30.689Z,12.89
2019-02-27T18:52:59.715Z,12.90
2019-02-27T18:55:30.720Z,12.87
2019-02-27T18:57:59.584Z,12.80
2019-02-27T19:00:29.083Z,12.72
2019-02-27T19:02:58.869Z,12.62
2019-02-27T19:05:28.263Z,12.58
2019-02-27T19:07:57.606Z,12.60
2019-02-27T19:10:27.229Z,12.55
2019-02-27T19:12:56.253Z,12.45
2019-02-27T19:15:25.983Z,12.39
2019-02-27T19:17:55.407Z,12.23
2019-02-27T19:20:26.766Z,12.11
2019-02-27T19:22:55.783Z,12.06
2019-02-27T19:25:24.917Z,11.98
2019-02-27T19:27:53.963Z,11.81
2019-02-27T19:30:27.619Z,11.78
2019-02-27T19:33:01.511Z,11.80
2019-02-27T19:35:28.001Z,11.70
2019-02-27T19:37:57.268Z,11.56
2019-02-27T19:40:29.871Z,11.57
2019-02-27T19:42:59.365Z,11.53
2019-02-27T19:45:29.175Z,11.43
2019-02-27T19:47:58.222Z,11.38
2019-02-27T19:50:27.836Z,11.36
2019-02-27T19:52:56.905Z,11.26
2019-02-27T19:55:27.552Z,11.34
2019-02-27T19:57:56.633Z,11.23
2019-02-27T20:00:27.305Z,11.15
2019-02-27T20:03:01.063Z,11.15
2019-02-27T20:05:27.301Z,10.99
2019-02-27T20:07:57.096Z,11.24
2019-02-27T20:10:28.832Z,11.28
2019-02-27T20:12:56.932Z,11.43
2019-02-27T20:15:26.685Z,11.51
2019-02-27T20:17:56.259Z,11.16
2019-02-27T20:20:25.803Z,10.99
2019-02-27T20:22:55.619Z,10.94
2019-02-27T20:25:25.271Z,10.95
2019-02-27T20:27:54.341Z,10.89
2019-02-27T20:30:24.103Z,10.87
2019-02-27T20:32:53.179Z,10.83
2019-02-27T20:35:22.220Z,10.79
2019-02-27T20:37:51.519Z,10.88
2019-02-27T20:40:20.788Z,10.91
2019-02-27T20:42:54.448Z,11.01
2019-02-27T20:45:20.963Z,10.96
2019-02-27T20:47:50.726Z,10.93
2019-02-27T20:50:34.816Z,10.93
2019-02-27T20:53:03.335Z,11.07
2019-02-27T20:55:32.409Z,10.87
2019-02-27T20:58:01.532Z,10.90
2019-02-27T21:00:36.123Z,10.79
2019-02-27T21:03:02.650Z,10.88
2019-02-27T21:05:32.732Z,10.88
2019-02-27T21:08:02.557Z,10.85
2019-02-27T21:10:31.779Z,11.07
2019-02-27T21:13:00.854Z,11.04
2019-02-27T21:15:32.339Z,11.07
2019-02-27T21:18:01.050Z,11.15
2019-02-27T21:20:30.105Z,11.14
2019-02-27T21:23:00.257Z,11.08
2019-02-27T21:25:30.597Z,11.02
2019-02-27T21:27:59.912Z,11.26
2019-02-27T21:30:29.243Z,11.17
2019-02-27T21:32:58.304Z,11.02
2019-02-27T21:35:29.646Z,11.07
2019-02-27T21:37:58.465Z,11.07
2019-02-27T21:40:27.620Z,10.99
2019-02-27T21:42:56.978Z,10.96
2019-02-27T21:45:26.345Z,10.84
2019-02-27T21:47:55.617Z,10.79
2019-02-27T21:50:24.979Z,10.66
2019-02-27T21:52:55.675Z,10.40
2019-02-27T21:55:24.958Z,10.46
2019-02-27T21:57:54.089Z,10.54
2019-02-27T22:00:24.010Z,10.65
2019-02-27T22:02:54.032Z,10.62
2019-02-27T22:05:23.494Z,10.52
2019-02-27T22:07:52.540Z,10.51
2019-02-27T22:10:22.156Z,10.48
2019-02-27T22:12:51.187Z,10.23
2019-02-27T22:15:25.155Z,10.08
2019-02-27T22:17:54.647Z,10.11
2019-02-27T22:20:25.775Z,9.56
2019-02-27T22:22:54.471Z,9.30
2019-02-27T22:25:23.518Z,8.95
2019-02-27T22:27:52.588Z,8.67
2019-02-27T22:30:21.651Z,8.45
2019-02-27T22:32:50.890Z,8.21
2019-02-27T22:35:20.297Z,8.13
2019-02-27T22:37:52.466Z,8.07
2019-02-27T22:40:20.212Z,8.06
2019-02-27T22:42:49.390Z,7.92
2019-02-27T22:45:18.770Z,7.88
2019-02-27T22:47:47.896Z,7.62
2019-02-27T22:50:17.357Z,7.49
2019-02-27T22:52:46.388Z,7.53
2019-02-27T22:55:15.847Z,7.42
2019-02-27T22:57:45.960Z,7.40
2019-02-27T23:00:56.788Z,7.32
2019-02-27T23:03:26.764Z,7.36
2019-02-27T23:05:55.772Z,7.51
2019-02-27T23:08:24.802Z,7.72
2019-02-27T23:10:53.864Z,7.84
2019-02-27T23:13:23.232Z,7.85
2019-02-27T23:15:57.892Z,7.72
2019-02-27T23:18:23.722Z,7.54
2019-02-27T23:20:55.505Z,7.44
2019-02-27T23:23:23.841Z,7.25
2019-02-27T23:25:52.906Z,7.08
2019-02-27T23:28:21.976Z,6.98
2019-02-27T23:30:50.998Z,6.82
2019-02-27T23:33:19.980Z,6.55
2019-02-27T23:35:50.182Z,6.49
2019-02-27T23:38:19.881Z,6.52
2019-02-27T23:40:50.023Z,6.57
2019-02-27T23:43:19.789Z,6.55
2019-02-27T23:45:48.888Z,6.64
2019-02-27T23:48:17.925Z,6.65
2019-02-27T23:50:46.950Z,6.66
2019-02-27T23:53:15.997Z,6.75
2019-02-27T23:55:45.671Z,6.72
2019-02-27T23:58:14.997Z,6.63
